No particular awareness of the weather is required.    There are no Weather-warnings


Meteo18 Weather Cam more information Meteo18 Weather Cam


Thunder radar more information blitzortung!


Rain radar more information rain snow radar


Visit our other weather sites:

Template documentation
and downloads

And another site



Weather Underground History page Text

Daily Summary for February 15, 2018 Units:  English    Metric   Both
« Previous Day
Next Day »
Daily Weekly Monthly Yearly Custom
  High: Low: Average:
Temperature: TemperatureC °F 3.6 °F 9.1 °F
Dew Point: DewpointC °F 2.4 °F 8.5 °F
Humidity: Humidity % 91 % 96 %
Wind Speed: WindSpeedKMH mph 0.0 mph 7.1 mph
Wind Gust: WindSpeedGustKMH mph - -
Wind:- - SW
Pressure: PressurehPa in 1011.4 in -
Precipitation: 6.3 in    
Historical Graphs
 
 
Tabular Data for February 15, 2018
Time Temperature Dew Point Pressure Wind Wind Speed Wind Gust Humidity Rainfall Rate (Hourly)
TemperatureC °F DewpointC °F PressurehPa in Calm     Humidity % HourlyPrecipMM in
00:02 3.7 °F 2.4 °F 1012.4 in SSE 3.2 mph 11.3 mph 91 % 1.3 in
00:08 3.7 °F 2.5 °F 1012.1 in SSE 6.4 mph 8.0 mph 92 % 1.5 in
00:14 3.7 °F 2.5 °F 1012.1 in SSE 3.2 mph 8.0 mph 92 % 1.5 in
00:20 3.7 °F 2.5 °F 1012.1 in SSE 1.4 mph 11.3 mph 92 % 1.5 in
00:26 3.6 °F 2.4 °F 1012.1 in South 3.2 mph 12.9 mph 92 % 1.5 in
00:32 3.6 °F 2.4 °F 1012.1 in SE 1.4 mph 11.3 mph 92 % 1.5 in
00:38 3.6 °F 2.6 °F 1012.1 in SSW 1.4 mph 8.0 mph 93 % 1.5 in
00:44 3.6 °F 2.6 °F 1012.1 in South 7.9 mph 9.7 mph 93 % 1.5 in
00:50 3.6 °F 2.6 °F 1012.1 in SE 1.4 mph 11.3 mph 93 % 1.5 in
01:07 3.6 °F 2.7 °F 1011.7 in ESE 6.4 mph 11.3 mph 94 % 1.0 in
01:14 3.6 °F 2.7 °F 1011.7 in South 6.4 mph 11.3 mph 94 % 1.5 in
01:20 3.6 °F 2.7 °F 1011.7 in ESE 6.4 mph 9.7 mph 94 % 1.5 in
01:26 3.6 °F 2.9 °F 1011.7 in SSE 4.7 mph 9.7 mph 95 % 1.3 in
01:36 3.6 °F 2.9 °F 1011.7 in South 3.2 mph 9.7 mph 95 % 1.5 in
01:42 3.6 °F 2.9 °F 1011.7 in SE 4.7 mph 9.7 mph 95 % 1.5 in
01:48 3.7 °F 3.1 °F 1011.4 in SSE 4.7 mph 9.7 mph 96 % 1.5 in
01:54 3.7 °F 3.1 °F 1011.4 in South 1.4 mph 8.0 mph 96 % 1.5 in
02:00 3.7 °F 3.1 °F 1011.7 in SSW 6.4 mph 8.0 mph 96 % 1.5 in
02:06 3.8 °F 3.2 °F 1011.7 in SSW 6.4 mph 8.0 mph 96 % 1.3 in
02:12 3.8 °F 3.2 °F 1011.7 in SSW 7.9 mph 11.3 mph 96 % 1.0 in
02:18 3.8 °F 3.2 °F 1011.4 in SSE 1.4 mph 9.7 mph 96 % 0.5 in
02:24 3.9 °F 3.3 °F 1011.4 in SSE 6.4 mph 14.5 mph 96 % 0.8 in
02:30 3.9 °F 3.3 °F 1011.4 in SSE 3.2 mph 11.3 mph 96 % 0.5 in
02:36 4.0 °F 3.4 °F 1011.4 in SSE 9.7 mph 9.7 mph 96 % 0.5 in
02:42 4.0 °F 3.6 °F 1011.7 in SSE 6.4 mph 8.0 mph 97 % 0.5 in
02:48 4.1 °F 3.7 °F 1011.7 in SSE 4.7 mph 8.0 mph 97 % 0.5 in
02:54 4.1 °F 3.7 °F 1011.4 in SSE 3.2 mph 6.4 mph 97 % 0.5 in
03:00 4.2 °F 3.8 °F 1011.7 in South 3.2 mph 11.3 mph 97 % 0.5 in
03:06 4.2 °F 3.8 °F 1011.7 in SSE 1.4 mph 11.3 mph 97 % 0.5 in
03:12 4.2 °F 3.8 °F 1011.7 in SSE 3.2 mph 9.7 mph 97 % 0.5 in
03:18 4.2 °F 3.8 °F 1011.7 in SW 4.7 mph 9.7 mph 97 % 0.5 in
03:24 4.2 °F 3.8 °F 1011.7 in South 4.7 mph 9.7 mph 97 % 0.3 in
03:30 4.2 °F 3.8 °F 1011.4 in Calm   6.4 mph 97 % 0.5 in
03:36 4.3 °F 3.9 °F 1011.4 in South 3.2 mph 4.8 mph 97 % 0.5 in
03:42 4.3 °F 3.9 °F 1011.4 in SSW 6.4 mph 8.0 mph 97 % 0.5 in
03:48 4.4 °F 4.0 °F 1011.4 in SSW 3.2 mph 4.8 mph 97 % 0.5 in
03:54 4.4 °F 4.0 °F 1011.4 in Calm   6.4 mph 97 % 0.3 in
04:00 4.4 °F 4.0 °F 1011.4 in SSE 1.4 mph 4.8 mph 97 % 0.5 in
04:06 4.5 °F 4.1 °F 1011.7 in South 1.4 mph 3.2 mph 97 % 0.5 in
04:12 4.6 °F 4.2 °F 1011.4 in SSE 6.4 mph 6.4 mph 97 % 0.5 in
04:19 4.7 °F 4.3 °F 1011.4 in Calm   4.8 mph 97 % 0.5 in
04:25 4.7 °F 4.3 °F 1011.4 in Calm   3.2 mph 97 % 0.5 in
04:31 4.7 °F 4.3 °F 1011.4 in Calm   1.6 mph 97 % 0.5 in
04:37 4.8 °F 4.4 °F 1011.4 in SSE 1.4 mph 3.2 mph 97 % 0.5 in
04:43 4.8 °F 4.4 °F 1011.4 in Calm   1.6 mph 97 % 0.5 in
04:49 4.8 °F 4.4 °F 1011.7 in Calm   1.6 mph 97 % 0.8 in
04:55 4.9 °F 4.5 °F 1011.7 in SSE 1.4 mph 1.6 mph 97 % 0.8 in
05:01 4.9 °F 4.5 °F 1011.7 in SSE 1.4 mph 1.6 mph 97 % 0.5 in
05:07 4.9 °F 4.5 °F 1011.7 in SSE 1.4 mph 1.6 mph 97 % 0.8 in
05:13 5.1 °F 4.7 °F 1011.7 in South 1.4 mph 1.6 mph 97 % 0.8 in
05:19 5.3 °F 5.0 °F 1011.7 in SSW 1.4 mph 4.8 mph 98 % 0.8 in
05:25 5.5 °F 5.2 °F 1011.7 in South 1.4 mph 4.8 mph 98 % 0.5 in
05:31 5.6 °F 5.3 °F 1011.7 in SSW 3.2 mph 6.4 mph 98 % 0.5 in
05:37 5.7 °F 5.4 °F 1011.7 in SSW 3.2 mph 6.4 mph 98 % 0.5 in
05:43 5.8 °F 5.5 °F 1012.1 in SSW 4.7 mph 4.8 mph 98 % 0.5 in
05:49 5.8 °F 5.5 °F 1012.1 in SW 4.7 mph 4.8 mph 98 % 0.3 in
05:55 5.8 °F 5.5 °F 1012.1 in SSW 3.2 mph 4.8 mph 98 % 0.3 in
06:01 5.9 °F 5.6 °F 1012.1 in South 1.4 mph 4.8 mph 98 % 0.3 in
06:07 6.1 °F 5.8 °F 1012.4 in SW 4.7 mph 6.4 mph 98 % 0.0 in
06:13 6.2 °F 5.9 °F 1012.4 in SSW 3.2 mph 6.4 mph 98 % 0.0 in
06:19 6.5 °F 6.2 °F 1012.4 in SW 6.4 mph 14.5 mph 98 % 0.3 in
06:25 6.7 °F 6.4 °F 1012.4 in SSW 3.2 mph 4.8 mph 98 % 0.3 in
06:31 6.8 °F 6.5 °F 1012.4 in Calm   4.8 mph 98 % 0.3 in
06:37 7.2 °F 6.9 °F 1012.8 in Calm   4.8 mph 98 % 0.3 in
06:43 7.3 °F 7.0 °F 1012.8 in SW 1.4 mph 4.8 mph 98 % 0.3 in
06:49 7.4 °F 7.1 °F 1012.8 in WSW 1.4 mph 4.8 mph 98 % 0.3 in
06:55 7.5 °F 7.2 °F 1012.8 in WSW 4.7 mph 11.3 mph 98 % 0.3 in
07:01 7.6 °F 7.3 °F 1012.8 in SW 1.4 mph 8.0 mph 98 % 0.3 in
07:07 7.7 °F 7.4 °F 1012.8 in WSW 3.2 mph 6.4 mph 98 % 0.3 in
07:13 7.8 °F 7.5 °F 1013.1 in SW 3.2 mph 6.4 mph 98 % 0.3 in
07:19 8.1 °F 7.8 °F 1013.1 in WSW 6.4 mph 9.7 mph 98 % 0.0 in
07:25 8.2 °F 7.9 °F 1013.1 in WSW 1.4 mph 12.9 mph 98 % 0.0 in
07:31 8.3 °F 8.0 °F 1013.1 in West 4.7 mph 17.7 mph 98 % 0.0 in
07:37 8.4 °F 8.1 °F 1013.4 in WSW 6.4 mph 16.1 mph 98 % 0.0 in
07:43 8.5 °F 8.2 °F 1013.4 in WSW 11.1 mph 12.9 mph 98 % 0.0 in
07:49 8.5 °F 8.2 °F 1013.4 in WSW 11.1 mph 14.5 mph 98 % 0.0 in
07:55 8.6 °F 8.3 °F 1013.4 in SW 3.2 mph 12.9 mph 98 % 0.0 in
08:01 8.6 °F 8.3 °F 1013.4 in West 7.9 mph 12.9 mph 98 % 0.0 in
08:07 8.6 °F 8.3 °F 1013.8 in West 6.4 mph 16.1 mph 98 % 0.0 in
08:13 8.7 °F 8.4 °F 1013.8 in WSW 7.9 mph 16.1 mph 98 % 0.0 in
08:19 8.8 °F 8.5 °F 1013.8 in WSW 6.4 mph 14.5 mph 98 % 0.0 in
08:25 8.8 °F 8.5 °F 1014.1 in SW 6.4 mph 19.3 mph 98 % 0.0 in
08:31 8.9 °F 8.6 °F 1014.1 in WSW 13.0 mph 14.5 mph 98 % 0.0 in
08:37 8.9 °F 8.6 °F 1014.1 in SW 9.7 mph 17.7 mph 98 % 0.0 in
08:43 8.9 °F 8.6 °F 1014.1 in SW 7.9 mph 12.9 mph 98 % 0.0 in
08:49 9.0 °F 8.7 °F 1014.1 in WSW 9.7 mph 14.5 mph 98 % 0.0 in
08:55 9.1 °F 8.8 °F 1014.4 in SW 9.7 mph 14.5 mph 98 % 0.0 in
09:01 9.1 °F 8.8 °F 1014.4 in SW 6.4 mph 12.9 mph 98 % 0.0 in
09:07 9.2 °F 8.9 °F 1014.4 in SW 9.7 mph 11.3 mph 98 % 0.0 in
09:13 9.3 °F 9.0 °F 1014.4 in SW 7.9 mph 14.5 mph 98 % 0.0 in
09:19 9.2 °F 8.9 °F 1014.4 in SW 4.7 mph 14.5 mph 98 % 0.0 in
09:25 9.3 °F 9.0 °F 1014.8 in SW 4.7 mph 11.3 mph 98 % 0.0 in
09:31 9.4 °F 9.1 °F 1014.8 in SW 9.7 mph 12.9 mph 98 % 0.0 in
09:37 9.4 °F 9.1 °F 1014.8 in SW 9.7 mph 14.5 mph 98 % 0.0 in
09:43 9.5 °F 9.2 °F 1015.1 in SW 7.9 mph 14.5 mph 98 % 0.3 in
09:49 9.5 °F 9.2 °F 1015.1 in SW 9.7 mph 12.9 mph 98 % 0.3 in
09:55 9.6 °F 9.3 °F 1015.1 in SSW 7.9 mph 12.9 mph 98 % 0.3 in
10:01 9.7 °F 9.4 °F 1015.1 in SW 9.7 mph 12.9 mph 98 % 0.3 in
10:07 9.7 °F 9.4 °F 1015.1 in SW 6.4 mph 9.7 mph 98 % 0.3 in
10:13 9.7 °F 9.4 °F 1015.1 in SW 9.7 mph 11.3 mph 98 % 0.3 in
10:19 9.8 °F 9.5 °F 1015.1 in SSW 6.4 mph 12.9 mph 98 % 0.5 in
10:25 9.9 °F 9.6 °F 1015.5 in SW 9.7 mph 14.5 mph 98 % 0.5 in
10:31 9.9 °F 9.6 °F 1015.5 in SW 13.0 mph 16.1 mph 98 % 0.5 in
10:37 9.9 °F 9.6 °F 1015.5 in SW 9.7 mph 14.5 mph 98 % 0.5 in
10:43 10.1 °F 9.8 °F 1015.5 in SW 7.9 mph 16.1 mph 98 % 0.5 in
10:49 10.2 °F 9.9 °F 1015.5 in SSW 6.4 mph 12.9 mph 98 % 0.5 in
10:55 10.3 °F 10.0 °F 1015.5 in SW 6.4 mph 12.9 mph 98 % 0.5 in
11:01 10.4 °F 10.1 °F 1015.5 in SW 13.0 mph 17.7 mph 98 % 0.5 in
11:07 10.6 °F 10.3 °F 1015.5 in SW 13.0 mph 16.1 mph 98 % 0.5 in
11:13 10.6 °F 10.3 °F 1015.8 in West 6.4 mph 11.3 mph 98 % 0.5 in
11:19 10.7 °F 10.4 °F 1015.5 in SW 7.9 mph 16.1 mph 98 % 0.3 in
11:25 10.8 °F 10.5 °F 1015.8 in SSW 7.9 mph 19.3 mph 98 % 0.3 in
11:31 10.9 °F 10.6 °F 1015.8 in West 7.9 mph 16.1 mph 98 % 0.3 in
11:37 10.9 °F 10.6 °F 1015.8 in SW 16.3 mph 16.3 mph 98 % 0.3 in
11:43 11.0 °F 10.7 °F 1015.8 in SW 14.3 mph 16.1 mph 98 % 0.0 in
11:49 11.1 °F 10.8 °F 1015.8 in West 16.3 mph 22.5 mph 98 % 0.0 in
11:55 11.1 °F 10.8 °F 1016.1 in SW 13.0 mph 16.1 mph 98 % 0.0 in
12:01 11.2 °F 10.9 °F 1016.1 in SW 9.7 mph 19.3 mph 98 % 0.0 in
12:07 11.3 °F 10.8 °F 1016.1 in WSW 11.1 mph 17.7 mph 97 % 0.0 in
12:13 11.3 °F 10.8 °F 1016.1 in WSW 17.7 mph 22.5 mph 97 % 0.0 in
12:20 11.4 °F 10.9 °F 1016.1 in SW 9.7 mph 20.9 mph 97 % 0.0 in
12:26 11.4 °F 10.9 °F 1016.1 in SW 6.4 mph 17.7 mph 97 % 0.0 in
12:32 11.6 °F 11.1 °F 1016.1 in West 14.3 mph 20.9 mph 97 % 0.0 in
12:38 11.7 °F 11.2 °F 1016.1 in WSW 6.4 mph 16.1 mph 97 % 0.0 in
12:44 11.7 °F 11.1 °F 1016.1 in WSW 13.0 mph 14.5 mph 96 % 0.0 in
12:50 11.7 °F 11.1 °F 1016.1 in SSW 6.4 mph 22.5 mph 96 % 0.0 in
12:56 11.8 °F 11.2 °F 1016.1 in WSW 28.8 mph 33.8 mph 96 % 0.0 in
13:02 11.9 °F 11.3 °F 1016.1 in SSW 9.7 mph 24.1 mph 96 % 0.0 in
13:08 12.1 °F 11.5 °F 1016.1 in West 13.0 mph 24.1 mph 96 % 0.0 in
13:14 12.1 °F 11.5 °F 1016.1 in WSW 13.0 mph 22.5 mph 96 % 0.0 in
13:20 12.3 °F 11.5 °F 1016.1 in West 4.7 mph 14.5 mph 95 % 0.0 in
13:26 12.3 °F 11.5 °F 1016.1 in SW 14.3 mph 20.9 mph 95 % 0.0 in
13:32 12.3 °F 11.5 °F 1016.1 in SW 11.1 mph 27.4 mph 95 % 0.0 in
13:38 12.2 °F 11.4 °F 1016.5 in SW 11.1 mph 20.9 mph 95 % 0.3 in
13:44 12.2 °F 11.6 °F 1016.5 in SW 14.3 mph 25.7 mph 96 % 0.5 in
13:50 12.2 °F 11.6 °F 1016.5 in WSW 19.5 mph 27.4 mph 96 % 0.5 in
13:56 12.2 °F 11.6 °F 1016.5 in SSW 14.3 mph 19.3 mph 96 % 0.5 in
14:02 12.2 °F 11.6 °F 1016.5 in SW 24.1 mph 27.4 mph 96 % 0.5 in
14:08 12.2 °F 11.6 °F 1016.1 in SW 25.9 mph 29.0 mph 96 % 0.5 in
14:14 12.3 °F 11.7 °F 1016.1 in WSW 20.9 mph 24.1 mph 96 % 0.5 in
14:20 12.4 °F 11.6 °F 1016.1 in SW 17.7 mph 27.4 mph 95 % 0.5 in
14:26 12.4 °F 11.6 °F 1016.1 in West 4.7 mph 25.7 mph 95 % 0.5 in
14:32 12.6 °F 11.7 °F 1016.1 in WSW 19.5 mph 25.7 mph 94 % 0.5 in
14:38 12.7 °F 11.8 °F 1016.1 in West 14.3 mph 25.7 mph 94 % 0.5 in
14:44 12.8 °F 11.9 °F 1016.5 in WSW 19.5 mph 22.5 mph 94 % 0.3 in
14:50 12.8 °F 11.7 °F 1016.5 in SW 11.1 mph 27.4 mph 93 % 0.3 in
14:56 12.8 °F 11.7 °F 1016.5 in WSW 16.3 mph 27.4 mph 93 % 0.0 in
15:02 12.7 °F 11.6 °F 1016.5 in West 9.7 mph 19.3 mph 93 % 0.0 in
15:08 12.7 °F 11.6 °F 1016.5 in West 16.3 mph 24.1 mph 93 % 0.0 in
15:14 12.6 °F 11.7 °F 1016.5 in WSW 9.7 mph 17.7 mph 94 % 0.0 in
15:20 12.6 °F 11.7 °F 1016.5 in SSW 6.4 mph 16.1 mph 94 % 0.0 in
15:26 12.5 °F 11.6 °F 1016.5 in WSW 9.7 mph 14.5 mph 94 % 0.0 in
15:32 12.5 °F 11.6 °F 1016.5 in SW 11.1 mph 19.3 mph 94 % 0.0 in
15:38 12.6 °F 11.5 °F 1016.5 in SW 16.3 mph 27.4 mph 93 % 0.0 in
15:44 12.6 °F 11.5 °F 1016.8 in SW 16.3 mph 22.5 mph 93 % 0.0 in
15:50 12.5 °F 11.4 °F 1016.8 in SW 7.9 mph 16.1 mph 93 % 0.0 in
15:56 12.6 °F 11.5 °F 1016.8 in SW 17.7 mph 25.7 mph 93 % 0.0 in
16:02 12.6 °F 11.5 °F 1016.8 in SW 9.7 mph 17.7 mph 93 % 0.0 in
16:08 12.7 °F 11.6 °F 1016.8 in WSW 11.1 mph 22.5 mph 93 % 0.0 in
16:14 12.7 °F 11.6 °F 1016.8 in West 7.9 mph 17.7 mph 93 % 0.0 in
16:20 12.6 °F 11.7 °F 1016.8 in SW 13.0 mph 14.5 mph 94 % 0.0 in
16:26 12.6 °F 11.7 °F 1016.8 in West 13.0 mph 14.5 mph 94 % 0.0 in
16:32 12.5 °F 11.7 °F 1016.8 in West 7.9 mph 16.1 mph 95 % 0.0 in
16:38 12.4 °F 11.6 °F 1016.8 in SW 7.9 mph 16.1 mph 95 % 0.0 in
16:44 12.4 °F 11.6 °F 1016.8 in SSW 7.9 mph 14.5 mph 95 % 0.0 in
16:50 12.4 °F 11.6 °F 1017.2 in SW 4.7 mph 22.5 mph 95 % 0.0 in
16:56 12.4 °F 11.6 °F 1017.2 in SW 6.4 mph 16.1 mph 95 % 0.0 in
17:02 12.5 °F 11.7 °F 1017.2 in SW 13.0 mph 19.3 mph 95 % 0.0 in
17:08 12.4 °F 11.6 °F 1017.5 in West 7.9 mph 12.9 mph 95 % 0.0 in
17:14 12.4 °F 11.6 °F 1017.5 in SW 6.4 mph 16.1 mph 95 % 0.0 in
17:20 12.4 °F 11.6 °F 1017.5 in West 13.0 mph 19.3 mph 95 % 0.3 in
17:26 12.4 °F 11.6 °F 1017.5 in West 14.3 mph 16.1 mph 95 % 0.3 in
17:32 12.4 °F 11.6 °F 1017.5 in WSW 13.0 mph 16.1 mph 95 % 0.3 in
17:38 12.4 °F 11.6 °F 1017.5 in WSW 6.4 mph 14.5 mph 95 % 0.3 in
17:44 12.4 °F 11.6 °F 1017.5 in SW 9.7 mph 20.9 mph 95 % 0.3 in
17:50 12.5 °F 11.6 °F 1017.8 in WSW 16.3 mph 17.7 mph 94 % 0.3 in
17:56 12.5 °F 11.6 °F 1017.8 in WSW 13.0 mph 13.0 mph 94 % 0.3 in
18:02 12.5 °F 11.6 °F 1017.8 in WSW 7.9 mph 14.5 mph 94 % 0.3 in
18:08 12.5 °F 11.6 °F 1017.8 in West 16.3 mph 17.7 mph 94 % 0.3 in
18:14 12.4 °F 11.5 °F 1017.8 in West 7.9 mph 19.3 mph 94 % 0.3 in
18:20 12.4 °F 11.5 °F 1017.8 in West 14.3 mph 16.1 mph 94 % 0.0 in
18:26 12.4 °F 11.5 °F 1018.2 in SW 6.4 mph 14.5 mph 94 % 0.0 in
18:32 12.3 °F 11.5 °F 1018.2 in SW 14.3 mph 19.3 mph 95 % 0.0 in
18:38 12.2 °F 11.4 °F 1018.2 in SW 3.2 mph 16.1 mph 95 % 0.0 in
18:44 12.1 °F 11.3 °F 1018.2 in West 9.7 mph 14.5 mph 95 % 0.3 in
18:50 12.1 °F 11.3 °F 1018.2 in West 14.3 mph 27.4 mph 95 % 0.3 in
18:56 12.1 °F 11.3 °F 1018.5 in WSW 9.7 mph 19.3 mph 95 % 0.3 in
19:02 12.1 °F 11.3 °F 1018.5 in West 3.2 mph 14.5 mph 95 % 0.3 in
19:08 12.1 °F 11.3 °F 1018.8 in NW 6.4 mph 11.3 mph 95 % 0.3 in
19:14 12.0 °F 11.2 °F 1018.8 in WNW 4.7 mph 9.7 mph 95 % 0.3 in
19:20 11.9 °F 11.1 °F 1018.8 in West 3.2 mph 6.4 mph 95 % 0.3 in
19:26 11.8 °F 11.0 °F 1018.8 in WNW 3.2 mph 6.4 mph 95 % 0.3 in
19:32 11.8 °F 11.0 °F 1019.2 in WNW 1.4 mph 4.8 mph 95 % 0.3 in
19:38 11.7 °F 10.9 °F 1019.2 in West 3.2 mph 6.4 mph 95 % 0.3 in
19:44 11.6 °F 10.8 °F 1019.2 in West 3.2 mph 9.7 mph 95 % 0.0 in
19:50 11.5 °F 10.7 °F 1019.2 in WNW 4.7 mph 14.5 mph 95 % 0.3 in
19:56 11.4 °F 10.6 °F 1019.5 in WNW 11.1 mph 11.3 mph 95 % 0.5 in
20:02 11.3 °F 10.5 °F 1019.5 in WNW 3.2 mph 4.8 mph 95 % 0.5 in
20:08 11.3 °F 10.5 °F 1019.5 in West 3.2 mph 3.2 mph 95 % 0.5 in
20:14 11.2 °F 10.4 °F 1019.5 in West 4.7 mph 4.8 mph 95 % 0.5 in
20:20 11.2 °F 10.4 °F 1019.5 in WNW 1.4 mph 6.4 mph 95 % 0.5 in
20:26 11.1 °F 10.3 °F 1019.5 in WNW 1.4 mph 3.2 mph 95 % 0.5 in
20:32 11.1 °F 10.3 °F 1019.5 in WNW 1.4 mph 1.6 mph 95 % 0.5 in
20:38 11.0 °F 10.2 °F 1019.5 in Calm   1.6 mph 95 % 0.5 in
20:44 10.9 °F 10.3 °F 1019.9 in Calm     96 % 0.5 in
20:51 10.9 °F 10.3 °F 1019.9 in Calm   1.6 mph 96 % 0.3 in
20:57 10.9 °F 10.3 °F 1019.9 in Calm   1.6 mph 96 % 0.0 in
21:03 10.8 °F 10.2 °F 1019.9 in WSW 3.2 mph 4.8 mph 96 % 0.0 in
21:09 10.7 °F 10.1 °F 1019.9 in West 3.2 mph 9.7 mph 96 % 0.0 in
21:15 10.7 °F 10.1 °F 1019.9 in West 1.4 mph 4.8 mph 96 % 0.0 in
21:21 10.6 °F 10.0 °F 1019.5 in Calm   3.2 mph 96 % 0.0 in
21:27 10.4 °F 9.8 °F 1019.5 in West 1.4 mph 4.8 mph 96 % 0.0 in
21:33 10.4 °F 9.8 °F 1019.9 in WSW 3.2 mph 8.0 mph 96 % 0.0 in
21:39 10.3 °F 9.5 °F 1019.9 in West 6.4 mph 9.7 mph 95 % 0.0 in
21:45 10.3 °F 9.4 °F 1019.9 in WSW 4.7 mph 6.4 mph 94 % 0.0 in
21:51 10.3 °F 9.4 °F 1020.2 in WSW 4.7 mph 9.7 mph 94 % 0.0 in
21:57 10.3 °F 9.4 °F 1020.2 in WSW 6.4 mph 11.3 mph 94 % 0.0 in
22:03 10.3 °F 9.4 °F 1020.2 in West 6.4 mph 12.9 mph 94 % 0.0 in
22:09 10.2 °F 9.3 °F 1020.5 in WNW 9.7 mph 12.9 mph 94 % 0.0 in
22:15 10.1 °F 9.2 °F 1020.5 in West 16.3 mph 22.5 mph 94 % 0.0 in
22:21 9.9 °F 9.0 °F 1020.9 in NW 13.0 mph 14.5 mph 94 % 0.0 in
22:29 9.7 °F 8.8 °F 1020.9 in NW 6.4 mph 16.1 mph 94 % 0.0 in
22:35 9.6 °F 8.7 °F 1020.9 in NW 9.7 mph 12.9 mph 94 % 0.0 in
22:41 9.6 °F 8.7 °F 1020.9 in NNE 3.2 mph 16.1 mph 94 % 0.0 in
22:47 9.4 °F 8.5 °F 1021.2 in WNW 7.9 mph 12.9 mph 94 % 0.0 in
22:53 9.4 °F 8.6 °F 1021.2 in NW 3.2 mph 8.0 mph 95 % 0.0 in
22:59 9.3 °F 8.5 °F 1021.2 in WNW 1.4 mph 8.0 mph 95 % 0.0 in
23:05 9.3 °F 8.5 °F 1021.2 in WSW 4.7 mph 9.7 mph 95 % 0.0 in
23:11 9.3 °F 8.5 °F 1021.2 in NW 3.2 mph 11.3 mph 95 % 0.0 in
23:17 9.2 °F 8.4 °F 1021.2 in NW 3.2 mph 6.4 mph 95 % 0.0 in
23:23 9.2 °F 8.4 °F 1021.2 in WNW 4.7 mph 9.7 mph 95 % 0.0 in
23:29 9.1 °F 8.3 °F 1021.2 in North 6.4 mph 11.3 mph 95 % 0.0 in
23:35 9.1 °F 8.3 °F 1021.6 in NW 3.2 mph 9.7 mph 95 % 0.0 in
23:41 9.1 °F 8.3 °F 1021.6 in WNW 4.7 mph 6.4 mph 95 % 0.0 in
23:47 9.1 °F 8.3 °F 1021.6 in WNW 4.7 mph 4.8 mph 95 % 0.0 in
23:53 9.0 °F 8.2 °F 1021.6 in WNW 4.7 mph 6.4 mph 95 % 0.0 in
23:59 9.0 °F 8.2 °F 1021.6 in WNW 4.7 mph 6.4 mph 95 % 0.0 in
Meteo18
Compliments of Weather Underground - 4 mb

Script developed by  Jim McMurry - jmcmurry@mwt.net Adapted for the template by  Wim van der Kuil - Leuven-Template.eu

You find our weather info also at:

European Weather Network

Weather Underground

Equipment we use:

Weather-station
Davis Vue

Weather-program
Meteobridge

Weather-server
Raspberry PI 2 B+

Provider
1 and 1

Davis Vue

Meteobridge

Raspberry PI 2 B+

1 and 1